sensor_id;sensor_type;location;lat;lon;timestamp;pressure;altitude;pressure_sealevel;temperature;humidity
32197;BME280;18697;42.770;23.400;2023-05-02T00:02:05;95958.25;;;16.46;56.56
32197;BME280;18697;42.770;23.400;2023-05-02T00:04:31;95955.31;;;16.29;56.19
32197;BME280;18697;42.770;23.400;2023-05-02T00:06:56;95943.34;;;16.08;58.14
32197;BME280;18697;42.770;23.400;2023-05-02T00:09:22;95941.78;;;15.81;57.51
32197;BME280;18697;42.770;23.400;2023-05-02T00:11:47;95952.03;;;15.29;59.51
32197;BME280;18697;42.770;23.400;2023-05-02T00:14:13;95943.47;;;15.18;61.43
32197;BME280;18697;42.770;23.400;2023-05-02T00:16:38;95945.09;;;15.24;59.68
32197;BME280;18697;42.770;23.400;2023-05-02T00:19:03;95943.00;;;14.69;60.43
32197;BME280;18697;42.770;23.400;2023-05-02T00:21:29;95953.38;;;14.10;62.26
32197;BME280;18697;42.770;23.400;2023-05-02T00:23:55;95950.03;;;13.67;63.91
32197;BME280;18697;42.770;23.400;2023-05-02T00:26:23;95952.47;;;13.89;65.54
32197;BME280;18697;42.770;23.400;2023-05-02T00:28:48;95961.97;;;13.44;65.05
32197;BME280;18697;42.770;23.400;2023-05-02T00:31:14;95952.38;;;13.12;66.90
32197;BME280;18697;42.770;23.400;2023-05-02T00:33:39;95970.84;;;12.67;68.29
32197;BME280;18697;42.770;23.400;2023-05-02T00:36:12;95965.66;;;12.42;69.72
32197;BME280;18697;42.770;23.400;2023-05-02T00:38:37;95966.63;;;12.30;71.01
32197;BME280;18697;42.770;23.400;2023-05-02T00:41:02;95967.56;;;12.17;71.52
32197;BME280;18697;42.770;23.400;2023-05-02T00:43:29;95970.97;;;12.03;71.88
32197;BME280;18697;42.770;23.400;2023-05-02T00:45:55;95971.75;;;11.76;72.78
32197;BME280;18697;42.770;23.400;2023-05-02T00:48:20;95973.16;;;11.63;73.50
32197;BME280;18697;42.770;23.400;2023-05-02T00:50:45;95970.78;;;11.43;74.44
32197;BME280;18697;42.770;23.400;2023-05-02T00:53:11;95974.03;;;11.32;75.30
32197;BME280;18697;42.770;23.400;2023-05-02T00:55:36;95983.56;;;11.22;76.26
32197;BME280;18697;42.770;23.400;2023-05-02T00:58:02;95982.34;;;11.14;76.86
32197;BME280;18697;42.770;23.400;2023-05-02T01:00:45;95988.94;;;10.98;77.55
32197;BME280;18697;42.770;23.400;2023-05-02T01:08:49;95987.63;;;10.81;79.43
32197;BME280;18697;42.770;23.400;2023-05-02T01:13:59;95996.09;;;10.77;79.75
32197;BME280;18697;42.770;23.400;2023-05-02T01:16:26;95991.34;;;10.87;78.93
32197;BME280;18697;42.770;23.400;2023-05-02T01:18:52;95987.28;;;11.10;78.17
32197;BME280;18697;42.770;23.400;2023-05-02T01:21:18;95990.06;;;11.10;77.68
32197;BME280;18697;42.770;23.400;2023-05-02T01:26:35;95983.28;;;11.29;76.72
32197;BME280;18697;42.770;23.400;2023-05-02T01:29:06;95985.16;;;11.41;77.10
32197;BME280;18697;42.770;23.400;2023-05-02T01:31:35;95985.16;;;11.41;76.25
32197;BME280;18697;42.770;23.400;2023-05-02T01:34:02;95985.50;;;11.52;76.45
32197;BME280;18697;42.770;23.400;2023-05-02T01:36:29;95984.28;;;11.63;75.57
32197;BME280;18697;42.770;23.400;2023-05-02T01:38:55;95979.50;;;12.09;75.52
32197;BME280;18697;42.770;23.400;2023-05-02T01:41:23;95983.94;;;12.43;72.88
32197;BME280;18697;42.770;23.400;2023-05-02T01:43:49;95984.25;;;12.27;72.21
32197;BME280;18697;42.770;23.400;2023-05-02T01:46:15;95985.16;;;12.51;73.04
32197;BME280;18697;42.770;23.400;2023-05-02T01:48:43;95984.84;;;12.49;71.73
32197;BME280;18697;42.770;23.400;2023-05-02T01:51:10;95981.31;;;12.39;72.99
32197;BME280;18697;42.770;23.400;2023-05-02T01:53:36;95986.00;;;12.66;71.61
32197;BME280;18697;42.770;23.400;2023-05-02T01:56:02;95983.63;;;12.32;72.06
32197;BME280;18697;42.770;23.400;2023-05-02T01:58:28;95995.41;;;12.36;72.15
32197;BME280;18697;42.770;23.400;2023-05-02T02:00:55;95986.13;;;12.21;72.92
32197;BME280;18697;42.770;23.400;2023-05-02T02:03:22;95988.28;;;12.35;73.64
32197;BME280;18697;42.770;23.400;2023-05-02T02:05:47;95991.06;;;12.26;73.26
32197;BME280;18697;42.770;23.400;2023-05-02T02:08:13;95986.75;;;12.15;73.61
32197;BME280;18697;42.770;23.400;2023-05-02T02:10:39;95995.41;;;11.99;73.71
32197;BME280;18697;42.770;23.400;2023-05-02T02:13:06;95980.91;;;11.77;74.53
32197;BME280;18697;42.770;23.400;2023-05-02T02:15:36;95985.66;;;11.58;75.24
32197;BME280;18697;42.770;23.400;2023-05-02T02:18:09;95985.97;;;11.69;75.44
32197;BME280;18697;42.770;23.400;2023-05-02T02:20:35;95983.66;;;11.59;75.77
32197;BME280;18697;42.770;23.400;2023-05-02T02:23:02;95982.72;;;11.52;76.27
32197;BME280;18697;42.770;23.400;2023-05-02T02:25:29;95978.09;;;11.59;77.75
32197;BME280;18697;42.770;23.400;2023-05-02T02:27:55;95968.97;;;11.76;76.58
32197;BME280;18697;42.770;23.400;2023-05-02T02:30:20;95970.38;;;11.90;75.03
32197;BME280;18697;42.770;23.400;2023-05-02T02:32:46;95986.88;;;11.57;74.90
32197;BME280;18697;42.770;23.400;2023-05-02T02:35:11;95983.63;;;11.40;75.57
32197;BME280;18697;42.770;23.400;2023-05-02T02:37:38;95984.03;;;11.11;76.96
32197;BME280;18697;42.770;23.400;2023-05-02T02:43:01;95992.47;;;10.99;78.13
32197;BME280;18697;42.770;23.400;2023-05-02T02:45:34;95986.59;;;11.64;78.39
32197;BME280;18697;42.770;23.400;2023-05-02T02:53:24;95968.84;;;13.01;70.09
32197;BME280;18697;42.770;23.400;2023-05-02T02:55:57;95974.44;;;13.01;70.49
32197;BME280;18697;42.770;23.400;2023-05-02T03:01:05;95991.53;;;12.33;72.74
32197;BME280;18697;42.770;23.400;2023-05-02T03:03:32;95991.81;;;12.44;72.62
32197;BME280;18697;42.770;23.400;2023-05-02T03:05:58;95991.94;;;12.59;72.45
32197;BME280;18697;42.770;23.400;2023-05-02T03:08:23;95991.75;;;13.62;69.59
32197;BME280;18697;42.770;23.400;2023-05-02T03:10:49;95995.84;;;14.67;65.38
32197;BME280;18697;42.770;23.400;2023-05-02T03:13:14;95998.16;;;14.69;62.58
32197;BME280;18697;42.770;23.400;2023-05-02T03:18:05;96012.06;;;15.63;61.11
32197;BME280;18697;42.770;23.400;2023-05-02T03:20:30;96007.88;;;16.14;59.76
32197;BME280;18697;42.770;23.400;2023-05-02T03:22:56;96014.63;;;16.73;58.03
32197;BME280;18697;42.770;23.400;2023-05-02T03:25:21;96020.41;;;16.90;56.87
32197;BME280;18697;42.770;23.400;2023-05-02T03:27:46;96023.44;;;17.24;56.54
32197;BME280;18697;42.770;23.400;2023-05-02T03:30:12;96015.66;;;17.39;55.76
32197;BME280;18697;42.770;23.400;2023-05-02T03:32:37;96026.44;;;17.46;55.82
32197;BME280;18697;42.770;23.400;2023-05-02T03:35:02;96022.38;;;17.53;54.39
32197;BME280;18697;42.770;23.400;2023-05-02T03:37:28;96030.75;;;17.79;54.27
32197;BME280;18697;42.770;23.400;2023-05-02T03:39:53;96036.22;;;18.04;53.11
32197;BME280;18697;42.770;23.400;2023-05-02T03:42:18;96026.88;;;18.30;52.48
32197;BME280;18697;42.770;23.400;2023-05-02T03:44:43;96026.66;;;18.39;52.72
32197;BME280;18697;42.770;23.400;2023-05-02T03:47:09;96029.06;;;18.74;51.77
32197;BME280;18697;42.770;23.400;2023-05-02T03:49:34;96026.25;;;18.80;51.20
32197;BME280;18697;42.770;23.400;2023-05-02T03:52:00;96036.75;;;18.85;50.51
32197;BME280;18697;42.770;23.400;2023-05-02T03:54:25;96031.88;;;18.80;51.44
32197;BME280;18697;42.770;23.400;2023-05-02T03:56:52;96020.25;;;18.38;52.45
32197;BME280;18697;42.770;23.400;2023-05-02T03:59:17;96033.00;;;17.69;53.03
32197;BME280;18697;42.770;23.400;2023-05-02T04:01:43;96032.41;;;17.28;55.14
32197;BME280;18697;42.770;23.400;2023-05-02T04:04:08;96029.53;;;16.85;56.49
32197;BME280;18697;42.770;23.400;2023-05-02T04:06:33;96032.72;;;16.72;57.85
32197;BME280;18697;42.770;23.400;2023-05-02T04:08:59;96031.53;;;16.33;58.01
32197;BME280;18697;42.770;23.400;2023-05-02T04:11:25;96032.94;;;16.49;58.37
32197;BME280;18697;42.770;23.400;2023-05-02T04:13:51;96036.41;;;17.16;58.38
32197;BME280;18697;42.770;23.400;2023-05-02T04:16:16;96036.38;;;17.47;57.30
32197;BME280;18697;42.770;23.400;2023-05-02T04:18:41;96034.69;;;17.61;56.10
32197;BME280;18697;42.770;23.400;2023-05-02T04:21:07;96036.88;;;17.77;56.45
32197;BME280;18697;42.770;23.400;2023-05-02T04:23:35;96037.91;;;17.85;56.17
32197;BME280;18697;42.770;23.400;2023-05-02T04:26:00;96034.25;;;18.22;56.05
32197;BME280;18697;42.770;23.400;2023-05-02T04:28:26;96037.25;;;18.07;55.58
32197;BME280;18697;42.770;23.400;2023-05-02T04:30:51;96037.50;;;18.03;55.79
32197;BME280;18697;42.770;23.400;2023-05-02T04:33:17;96042.00;;;17.84;56.61
32197;BME280;18697;42.770;23.400;2023-05-02T04:35:42;96042.84;;;17.59;55.87
32197;BME280;18697;42.770;23.400;2023-05-02T04:38:07;96036.81;;;17.34;57.03
32197;BME280;18697;42.770;23.400;2023-05-02T04:40:33;96041.06;;;17.24;56.08
32197;BME280;18697;42.770;23.400;2023-05-02T04:42:58;96038.09;;;17.02;58.23
32197;BME280;18697;42.770;23.400;2023-05-02T04:45:24;96051.38;;;16.75;58.81
32197;BME280;18697;42.770;23.400;2023-05-02T04:47:49;96040.16;;;16.75;60.06
32197;BME280;18697;42.770;23.400;2023-05-02T04:50:14;96046.41;;;16.19;58.25
32197;BME280;18697;42.770;23.400;2023-05-02T04:52:40;96048.25;;;15.66;60.47
32197;BME280;18697;42.770;23.400;2023-05-02T04:55:06;96051.72;;;14.97;61.55
32197;BME280;18697;42.770;23.400;2023-05-02T04:57:31;96048.41;;;14.39;63.44
32197;BME280;18697;42.770;23.400;2023-05-02T04:59:56;96053.88;;;14.34;63.81
32197;BME280;18697;42.770;23.400;2023-05-02T05:02:22;96051.03;;;14.04;64.40
32197;BME280;18697;42.770;23.400;2023-05-02T05:04:47;96051.47;;;13.88;66.42
32197;BME280;18697;42.770;23.400;2023-05-02T05:07:13;96059.91;;;13.46;65.69
32197;BME280;18697;42.770;23.400;2023-05-02T05:09:38;96048.06;;;13.36;66.03
32197;BME280;18697;42.770;23.400;2023-05-02T05:12:03;96059.09;;;13.31;66.57
32197;BME280;18697;42.770;23.400;2023-05-02T05:14:28;96059.06;;;12.79;67.69
32197;BME280;18697;42.770;23.400;2023-05-02T05:16:55;96057.00;;;12.98;68.29
32197;BME280;18697;42.770;23.400;2023-05-02T05:19:20;96055.88;;;13.05;67.90
32197;BME280;18697;42.770;23.400;2023-05-02T05:21:46;96055.25;;;13.10;66.31
32197;BME280;18697;42.770;23.400;2023-05-02T05:24:11;96059.47;;;13.05;66.35
32197;BME280;18697;42.770;23.400;2023-05-02T05:26:36;96059.13;;;13.12;66.40
32197;BME280;18697;42.770;23.400;2023-05-02T05:29:01;96063.66;;;13.01;66.04
32197;BME280;18697;42.770;23.400;2023-05-02T05:31:27;96056.84;;;12.93;65.92
32197;BME280;18697;42.770;23.400;2023-05-02T05:33:52;96070.78;;;12.93;65.72
32197;BME280;18697;42.770;23.400;2023-05-02T05:36:17;96071.56;;;12.93;66.03
32197;BME280;18697;42.770;23.400;2023-05-02T05:38:42;96068.31;;;12.95;67.84
32197;BME280;18697;42.770;23.400;2023-05-02T05:41:08;96074.03;;;13.00;66.90
32197;BME280;18697;42.770;23.400;2023-05-02T05:43:35;96077.91;;;12.94;66.24
32197;BME280;18697;42.770;23.400;2023-05-02T05:46:00;96075.56;;;13.20;65.55
32197;BME280;18697;42.770;23.400;2023-05-02T05:48:25;96072.75;;;13.20;65.54
32197;BME280;18697;42.770;23.400;2023-05-02T05:50:50;96085.28;;;13.24;64.95
32197;BME280;18697;42.770;23.400;2023-05-02T05:53:16;96063.00;;;13.48;65.70
32197;BME280;18697;42.770;23.400;2023-05-02T05:55:42;96069.97;;;13.53;64.51
32197;BME280;18697;42.770;23.400;2023-05-02T05:58:07;96070.25;;;13.55;63.46
32197;BME280;18697;42.770;23.400;2023-05-02T06:00:36;96066.78;;;13.69;63.19
32197;BME280;18697;42.770;23.400;2023-05-02T06:03:01;96073.19;;;13.84;62.90
32197;BME280;18697;42.770;23.400;2023-05-02T06:05:27;96079.56;;;14.08;62.83
32197;BME280;18697;42.770;23.400;2023-05-02T06:07:52;96079.78;;;13.96;61.55
32197;BME280;18697;42.770;23.400;2023-05-02T06:10:18;96067.78;;;14.04;62.04
32197;BME280;18697;42.770;23.400;2023-05-02T06:12:43;96072.25;;;14.26;60.64
32197;BME280;18697;42.770;23.400;2023-05-02T06:15:08;96070.84;;;14.30;60.71
32197;BME280;18697;42.770;23.400;2023-05-02T06:17:34;96068.91;;;14.60;60.32
32197;BME280;18697;42.770;23.400;2023-05-02T06:19:59;96072.19;;;14.88;60.23
32197;BME280;18697;42.770;23.400;2023-05-02T06:22:24;96066.97;;;14.96;57.65
32197;BME280;18697;42.770;23.400;2023-05-02T06:24:49;96064.56;;;15.18;57.60
32197;BME280;18697;42.770;23.400;2023-05-02T06:27:15;96057.72;;;14.90;57.82
32197;BME280;18697;42.770;23.400;2023-05-02T06:29:40;96060.78;;;15.06;58.28
32197;BME280;18697;42.770;23.400;2023-05-02T06:32:05;96060.00;;;15.35;58.05
32197;BME280;18697;42.770;23.400;2023-05-02T06:34:31;96053.44;;;15.38;55.77
32197;BME280;18697;42.770;23.400;2023-05-02T06:36:57;96043.13;;;15.65;56.11
32197;BME280;18697;42.770;23.400;2023-05-02T06:39:22;96055.72;;;15.55;54.96
32197;BME280;18697;42.770;23.400;2023-05-02T06:41:47;96052.78;;;15.64;53.08
32197;BME280;18697;42.770;23.400;2023-05-02T06:44:13;96061.63;;;15.77;51.57
32197;BME280;18697;42.770;23.400;2023-05-02T06:46:38;96056.31;;;15.59;50.24
32197;BME280;18697;42.770;23.400;2023-05-02T06:49:03;96043.50;;;15.72;50.22
32197;BME280;18697;42.770;23.400;2023-05-02T06:51:28;96052.25;;;15.80;50.09
32197;BME280;18697;42.770;23.400;2023-05-02T06:53:54;96049.25;;;15.84;50.34
32197;BME280;18697;42.770;23.400;2023-05-02T06:56:19;96042.66;;;15.87;49.40
32197;BME280;18697;42.770;23.400;2023-05-02T06:58:44;96036.59;;;16.08;48.74
32197;BME280;18697;42.770;23.400;2023-05-02T07:01:09;96037.28;;;16.24;47.31
32197;BME280;18697;42.770;23.400;2023-05-02T07:03:36;96056.91;;;16.24;50.42
32197;BME280;18697;42.770;23.400;2023-05-02T07:06:01;96056.69;;;16.07;49.50
32197;BME280;18697;42.770;23.400;2023-05-02T07:08:27;96048.16;;;16.16;49.58
32197;BME280;18697;42.770;23.400;2023-05-02T07:10:52;96047.13;;;16.39;47.14
32197;BME280;18697;42.770;23.400;2023-05-02T07:13:18;96057.91;;;16.67;46.37
32197;BME280;18697;42.770;23.400;2023-05-02T07:15:43;96049.97;;;16.65;45.24
32197;BME280;18697;42.770;23.400;2023-05-02T07:18:08;96054.25;;;16.61;46.24
32197;BME280;18697;42.770;23.400;2023-05-02T07:20:33;96061.66;;;16.64;45.57
32197;BME280;18697;42.770;23.400;2023-05-02T07:22:58;96041.75;;;16.82;45.15
32197;BME280;18697;42.770;23.400;2023-05-02T07:25:24;96048.88;;;16.83;44.83
32197;BME280;18697;42.770;23.400;2023-05-02T07:27:49;96042.25;;;17.12;45.77
32197;BME280;18697;42.770;23.400;2023-05-02T07:30:14;96052.94;;;17.08;45.06
32197;BME280;18697;42.770;23.400;2023-05-02T07:32:40;96041.13;;;16.98;44.81
32197;BME280;18697;42.770;23.400;2023-05-02T07:35:05;96042.66;;;17.31;44.75
32197;BME280;18697;42.770;23.400;2023-05-02T07:37:31;96037.81;;;17.31;43.95
32197;BME280;18697;42.770;23.400;2023-05-02T07:39:57;96039.66;;;17.40;43.33
32197;BME280;18697;42.770;23.400;2023-05-02T07:42:27;96042.13;;;17.64;44.49
32197;BME280;18697;42.770;23.400;2023-05-02T07:44:52;96049.28;;;17.65;42.77
32197;BME280;18697;42.770;23.400;2023-05-02T07:47:17;96044.66;;;17.62;42.59
32197;BME280;18697;42.770;23.400;2023-05-02T07:49:43;96056.81;;;17.79;42.10
32197;BME280;18697;42.770;23.400;2023-05-02T07:52:08;96064.56;;;18.01;41.87
32197;BME280;18697;42.770;23.400;2023-05-02T07:54:33;96048.19;;;17.94;42.34
32197;BME280;18697;42.770;23.400;2023-05-02T07:56:59;96054.72;;;17.74;41.14
32197;BME280;18697;42.770;23.400;2023-05-02T07:59:28;96038.03;;;18.08;41.98
32197;BME280;18697;42.770;23.400;2023-05-02T08:01:53;96059.03;;;18.18;42.35
32197;BME280;18697;42.770;23.400;2023-05-02T08:04:19;96053.44;;;18.23;41.24
32197;BME280;18697;42.770;23.400;2023-05-02T08:06:44;96044.84;;;18.55;41.63
32197;BME280;18697;42.770;23.400;2023-05-02T08:09:09;96046.13;;;18.59;41.69
32197;BME280;18697;42.770;23.400;2023-05-02T08:11:34;96046.69;;;18.63;40.82
32197;BME280;18697;42.770;23.400;2023-05-02T08:14:00;96038.75;;;18.62;40.92
32197;BME280;18697;42.770;23.400;2023-05-02T08:16:25;96038.78;;;18.73;40.62
32197;BME280;18697;42.770;23.400;2023-05-02T08:18:50;96042.34;;;18.68;40.08
32197;BME280;18697;42.770;23.400;2023-05-02T08:21:16;96041.59;;;18.73;40.45
32197;BME280;18697;42.770;23.400;2023-05-02T08:23:41;96039.81;;;18.81;40.44
32197;BME280;18697;42.770;23.400;2023-05-02T08:26:06;96039.56;;;18.90;40.79
32197;BME280;18697;42.770;23.400;2023-05-02T08:28:31;96044.16;;;18.77;40.55
32197;BME280;18697;42.770;23.400;2023-05-02T08:30:57;96033.44;;;18.92;40.44
32197;BME280;18697;42.770;23.400;2023-05-02T08:33:22;96061.06;;;18.99;38.93
32197;BME280;18697;42.770;23.400;2023-05-02T08:35:47;96053.88;;;18.76;39.92
32197;BME280;18697;42.770;23.400;2023-05-02T08:38:13;96037.22;;;18.66;39.59
32197;BME280;18697;42.770;23.400;2023-05-02T08:40:38;96042.09;;;18.77;38.42
32197;BME280;18697;42.770;23.400;2023-05-02T08:43:04;96040.81;;;18.78;39.55
32197;BME280;18697;42.770;23.400;2023-05-02T08:45:40;96039.81;;;18.81;39.70
32197;BME280;18697;42.770;23.400;2023-05-02T08:48:07;96047.25;;;18.95;39.26
32197;BME280;18697;42.770;23.400;2023-05-02T08:50:37;96037.81;;;19.26;39.18
32197;BME280;18697;42.770;23.400;2023-05-02T08:53:06;96045.75;;;19.22;38.43
32197;BME280;18697;42.770;23.400;2023-05-02T08:55:35;96049.56;;;18.91;37.73
32197;BME280;18697;42.770;23.400;2023-05-02T08:58:05;96046.22;;;18.93;38.09
32197;BME280;18697;42.770;23.400;2023-05-02T09:00:31;96046.22;;;18.87;39.01
32197;BME280;18697;42.770;23.400;2023-05-02T09:03:01;96034.75;;;19.24;39.54
32197;BME280;18697;42.770;23.400;2023-05-02T09:05:29;96037.00;;;19.37;40.17
32197;BME280;18697;42.770;23.400;2023-05-02T09:07:57;96036.75;;;19.35;39.44
32197;BME280;18697;42.770;23.400;2023-05-02T09:10:22;96026.53;;;19.60;40.33
32197;BME280;18697;42.770;23.400;2023-05-02T09:12:50;96037.28;;;19.67;38.04
32197;BME280;18697;42.770;23.400;2023-05-02T09:15:15;96027.03;;;19.64;38.62
32197;BME280;18697;42.770;23.400;2023-05-02T09:17:41;96042.38;;;19.85;38.10
32197;BME280;18697;42.770;23.400;2023-05-02T09:20:08;96019.56;;;19.89;37.03
32197;BME280;18697;42.770;23.400;2023-05-02T09:22:33;96016.13;;;20.13;37.54
32197;BME280;18697;42.770;23.400;2023-05-02T09:24:59;96025.59;;;20.10;37.35
32197;BME280;18697;42.770;23.400;2023-05-02T09:27:26;96023.16;;;19.84;38.25
32197;BME280;18697;42.770;23.400;2023-05-02T09:29:51;96030.19;;;20.18;38.28
32197;BME280;18697;42.770;23.400;2023-05-02T09:32:16;96016.88;;;20.19;38.01
32197;BME280;18697;42.770;23.400;2023-05-02T09:34:45;96029.72;;;20.09;36.84
32197;BME280;18697;42.770;23.400;2023-05-02T09:37:33;96025.81;;;20.23;36.37
32197;BME280;18697;42.770;23.400;2023-05-02T09:40:05;96027.59;;;20.26;35.84
32197;BME280;18697;42.770;23.400;2023-05-02T09:42:31;96022.97;;;20.28;37.15
32197;BME280;18697;42.770;23.400;2023-05-02T09:44:56;96009.00;;;20.58;36.39
32197;BME280;18697;42.770;23.400;2023-05-02T09:47:25;96012.75;;;20.78;36.95
32197;BME280;18697;42.770;23.400;2023-05-02T09:49:53;96007.53;;;20.87;37.18
32197;BME280;18697;42.770;23.400;2023-05-02T09:52:18;96014.28;;;20.79;35.07
32197;BME280;18697;42.770;23.400;2023-05-02T09:54:45;96023.22;;;20.83;36.67
32197;BME280;18697;42.770;23.400;2023-05-02T09:57:11;96015.00;;;20.38;36.85
32197;BME280;18697;42.770;23.400;2023-05-02T09:59:37;96007.84;;;20.31;37.33
32197;BME280;18697;42.770;23.400;2023-05-02T10:21:25;95990.22;;;21.62;34.54
32197;BME280;18697;42.770;23.400;2023-05-02T10:23:54;95987.72;;;21.28;34.74
32197;BME280;18697;42.770;23.400;2023-05-02T10:26:19;95982.69;;;21.46;35.54
32197;BME280;18697;42.770;23.400;2023-05-02T10:28:49;95990.13;;;21.49;35.04
32197;BME280;18697;42.770;23.400;2023-05-02T10:31:16;95987.50;;;21.21;34.41
32197;BME280;18697;42.770;23.400;2023-05-02T10:33:42;95975.00;;;21.11;34.58
32197;BME280;18697;42.770;23.400;2023-05-02T10:36:09;95973.25;;;21.08;35.93
32197;BME280;18697;42.770;23.400;2023-05-02T10:38:37;95973.75;;;21.06;36.26
32197;BME280;18697;42.770;23.400;2023-05-02T10:41:09;95959.88;;;21.08;35.45
32197;BME280;18697;42.770;23.400;2023-05-02T10:43:36;95958.31;;;21.67;35.37
32197;BME280;18697;42.770;23.400;2023-05-02T10:46:34;95984.50;;;21.68;36.02
32197;BME280;18697;42.770;23.400;2023-05-02T10:49:04;95957.94;;;21.27;35.97
32197;BME280;18697;42.770;23.400;2023-05-02T10:51:30;95970.31;;;20.89;34.63
32197;BME280;18697;42.770;23.400;2023-05-02T10:54:23;95962.28;;;20.98;35.43
32197;BME280;18697;42.770;23.400;2023-05-02T10:59:32;95952.41;;;21.11;35.77
32197;BME280;18697;42.770;23.400;2023-05-02T11:01:57;95956.00;;;21.11;35.31
32197;BME280;18697;42.770;23.400;2023-05-02T11:04:23;95964.41;;;21.22;35.92
32197;BME280;18697;42.770;23.400;2023-05-02T11:11:51;95953.00;;;21.58;35.60
32197;BME280;18697;42.770;23.400;2023-05-02T11:24:47;95937.19;;;21.19;35.79
32197;BME280;18697;42.770;23.400;2023-05-02T11:32:26;95933.41;;;21.11;35.80
32197;BME280;18697;42.770;23.400;2023-05-02T11:35:22;95926.94;;;21.22;35.63
32197;BME280;18697;42.770;23.400;2023-05-02T11:37:55;95932.66;;;21.11;35.95
32197;BME280;18697;42.770;23.400;2023-05-02T11:40:22;95924.06;;;21.27;35.07
32197;BME280;18697;42.770;23.400;2023-05-02T11:42:47;95930.53;;;21.17;34.75
32197;BME280;18697;42.770;23.400;2023-05-02T11:45:13;95929.88;;;21.59;34.46
32197;BME280;18697;42.770;23.400;2023-05-02T11:47:40;95925.44;;;21.64;35.64
32197;BME280;18697;42.770;23.400;2023-05-02T11:50:06;95919.00;;;21.45;36.12
32197;BME280;18697;42.770;23.400;2023-05-02T11:52:42;95931.47;;;21.30;33.93
32197;BME280;18697;42.770;23.400;2023-05-02T11:55:12;95930.88;;;21.38;33.24
32197;BME280;18697;42.770;23.400;2023-05-02T11:57:38;95915.34;;;21.50;33.36
32197;BME280;18697;42.770;23.400;2023-05-02T12:00:04;95928.97;;;21.70;33.51
32197;BME280;18697;42.770;23.400;2023-05-02T12:02:43;95934.75;;;21.59;33.06
32197;BME280;18697;42.770;23.400;2023-05-02T12:05:11;95905.31;;;21.73;34.30
32197;BME280;18697;42.770;23.400;2023-05-02T12:07:41;95900.34;;;21.79;34.59
32197;BME280;18697;42.770;23.400;2023-05-02T12:10:08;95896.59;;;21.71;34.15
32197;BME280;18697;42.770;23.400;2023-05-02T12:12:34;95889.50;;;21.83;34.13
32197;BME280;18697;42.770;23.400;2023-05-02T12:15:04;95901.78;;;21.67;32.76
32197;BME280;18697;42.770;23.400;2023-05-02T12:17:32;95889.50;;;21.83;34.30
32197;BME280;18697;42.770;23.400;2023-05-02T12:19:58;95878.56;;;21.74;34.06
32197;BME280;18697;42.770;23.400;2023-05-02T12:22:24;95900.28;;;21.85;34.32
32197;BME280;18697;42.770;23.400;2023-05-02T12:24:50;95863.22;;;21.88;33.49
32197;BME280;18697;42.770;23.400;2023-05-02T12:27:18;95887.47;;;21.41;33.20
32197;BME280;18697;42.770;23.400;2023-05-02T12:29:45;95872.91;;;21.31;35.83
32197;BME280;18697;42.770;23.400;2023-05-02T12:32:12;95879.94;;;21.68;34.19
32197;BME280;18697;42.770;23.400;2023-05-02T12:34:38;95870.16;;;21.50;34.64
32197;BME280;18697;42.770;23.400;2023-05-02T12:37:51;95866.94;;;21.10;34.59
32197;BME280;18697;42.770;23.400;2023-05-02T12:40:17;95862.34;;;21.07;34.18
32197;BME280;18697;42.770;23.400;2023-05-02T12:42:57;95862.25;;;20.88;34.38
32197;BME280;18697;42.770;23.400;2023-05-02T12:45:23;95871.50;;;20.89;33.36
32197;BME280;18697;42.770;23.400;2023-05-02T12:47:48;95863.97;;;20.97;32.73
32197;BME280;18697;42.770;23.400;2023-05-02T12:50:15;95849.75;;;21.08;33.48
32197;BME280;18697;42.770;23.400;2023-05-02T12:52:48;95843.56;;;21.10;32.71
32197;BME280;18697;42.770;23.400;2023-05-02T12:55:19;95846.56;;;21.23;33.89
32197;BME280;18697;42.770;23.400;2023-05-02T12:57:45;95850.06;;;21.53;32.83
32197;BME280;18697;42.770;23.400;2023-05-02T13:00:11;95857.13;;;21.41;32.56
32197;BME280;18697;42.770;23.400;2023-05-02T13:02:37;95857.13;;;21.41;32.06
32197;BME280;18697;42.770;23.400;2023-05-02T13:05:13;95852.19;;;21.66;32.23
32197;BME280;18697;42.770;23.400;2023-05-02T13:07:38;95842.91;;;21.90;32.93
32197;BME280;18697;42.770;23.400;2023-05-02T13:10:04;95852.94;;;22.10;32.71
32197;BME280;18697;42.770;23.400;2023-05-02T13:12:29;95832.22;;;22.20;33.34
32197;BME280;18697;42.770;23.400;2023-05-02T13:14:55;95840.63;;;22.26;31.80
32197;BME280;18697;42.770;23.400;2023-05-02T13:17:20;95846.03;;;21.86;31.34
32197;BME280;18697;42.770;23.400;2023-05-02T13:19:46;95847.06;;;22.08;31.46
32197;BME280;18697;42.770;23.400;2023-05-02T13:22:11;95846.94;;;21.94;32.65
32197;BME280;18697;42.770;23.400;2023-05-02T13:24:37;95852.66;;;21.70;31.84
32197;BME280;18697;42.770;23.400;2023-05-02T13:27:02;95844.34;;;21.78;32.00
32197;BME280;18697;42.770;23.400;2023-05-02T13:29:27;95848.47;;;21.77;32.68
32197;BME280;18697;42.770;23.400;2023-05-02T13:31:53;95830.38;;;21.85;32.83
32197;BME280;18697;42.770;23.400;2023-05-02T13:34:18;95851.00;;;21.80;31.89
32197;BME280;18697;42.770;23.400;2023-05-02T13:36:44;95827.16;;;21.76;32.64
32197;BME280;18697;42.770;23.400;2023-05-02T13:39:10;95820.66;;;21.62;33.68
32197;BME280;18697;42.770;23.400;2023-05-02T13:41:37;95832.44;;;21.85;34.00
32197;BME280;18697;42.770;23.400;2023-05-02T13:44:02;95836.22;;;21.69;31.45
32197;BME280;18697;42.770;23.400;2023-05-02T13:46:27;95836.69;;;21.54;32.77
32197;BME280;18697;42.770;23.400;2023-05-02T13:48:53;95837.38;;;21.41;31.70
32197;BME280;18697;42.770;23.400;2023-05-02T13:51:18;95818.28;;;21.66;33.95
32197;BME280;18697;42.770;23.400;2023-05-02T13:53:43;95820.72;;;21.75;32.60
32197;BME280;18697;42.770;23.400;2023-05-02T13:56:09;95834.13;;;21.93;32.30